Time;durP1;ratioP1;P1;durP2;ratioP2;P2;SDS_P1;SDS_P2;PMS_P1;PMS_P2;Temp;Humidity;BMP_temperature;BMP_pressure;BME280_temperature;BME280_humidity;BME280_pressure;Samples;Min_cycle;Max_cycle;Signal;HPM_P1;HPM_P2
2022/02/19 00:00:16;;;;;;;26.93;4.63;;;5.90;73.40;;;;;;5075385;28;20051;-89
2022/02/19 00:02:43;;;;;;;17.30;3.70;;;5.90;73.20;;;;;;5092222;28;20172;-88
2022/02/19 00:05:10;;;;;;;14.45;3.17;;;5.90;73.10;;;;;;5092278;28;20044;-88
2022/02/19 00:07:37;;;;;;;19.52;3.25;;;5.90;73.10;;;;;;5092810;28;20071;-88
2022/02/19 00:10:04;;;;;;;23.85;3.42;;;5.90;72.90;;;;;;5092030;28;20507;-88
2022/02/19 00:12:32;;;;;;;21.48;2.90;;;5.90;72.80;;;;;;5073979;28;20463;-87
2022/02/19 00:14:59;;;;;;;17.83;2.90;;;5.90;72.70;;;;;;5092093;28;20059;-87
2022/02/19 00:17:26;;;;;;;17.20;3.25;;;5.90;72.60;;;;;;5092175;28;20043;-87
2022/02/19 00:19:53;;;;;;;20.88;3.38;;;6.00;72.50;;;;;;5092188;28;20052;-87
2022/02/19 00:22:20;;;;;;;20.15;3.22;;;6.00;72.40;;;;;;5092290;28;20101;-87
2022/02/19 00:24:48;;;;;;;21.00;3.22;;;5.90;72.20;;;;;;5091804;28;20480;-87
2022/02/19 00:27:16;;;;;;;19.67;3.35;;;5.90;72.10;;;;;;5091590;28;20093;-86
2022/02/19 00:29:43;;;;;;;21.42;3.35;;;5.90;72.10;;;;;;5091940;28;20109;-87
2022/02/19 00:32:10;;;;;;;19.20;2.85;;;5.90;72.00;;;;;;5091784;28;20052;-86
2022/02/19 00:34:38;;;;;;;20.63;2.88;;;5.90;71.90;;;;;;5092438;28;20063;-87
2022/02/19 00:37:05;;;;;;;21.33;3.33;;;5.90;71.80;;;;;;5091870;28;20047;-88
2022/02/19 00:39:32;;;;;;;16.40;2.55;;;5.90;71.70;;;;;;5073753;28;20089;-88
2022/02/19 00:42:02;;;;;;;18.92;3.15;;;5.90;71.60;;;;;;5091311;28;20048;-87
2022/02/19 00:44:30;;;;;;;16.48;3.13;;;5.90;71.50;;;;;;5091836;28;20055;-87
2022/02/19 00:46:59;;;;;;;17.30;2.78;;;5.90;71.40;;;;;;5091964;28;20055;-88
2022/02/19 00:49:27;;;;;;;18.30;3.00;;;5.90;71.30;;;;;;5090375;28;20111;-87
2022/02/19 00:51:54;;;;;;;16.92;2.97;;;5.90;71.30;;;;;;5091368;28;20429;-86
2022/02/19 00:54:22;;;;;;;16.05;3.53;;;5.90;71.20;;;;;;5073606;28;20048;-87
2022/02/19 00:56:49;;;;;;;16.98;3.00;;;5.90;71.20;;;;;;5091093;28;20421;-87
2022/02/19 00:59:16;;;;;;;20.90;2.97;;;5.90;71.20;;;;;;5091649;28;20053;-87
2022/02/19 01:01:43;;;;;;;17.20;2.88;;;5.90;71.10;;;;;;5092214;28;20055;-88
2022/02/19 01:04:10;;;;;;;20.52;3.38;;;5.90;71.10;;;;;;5094621;28;20059;-87
2022/02/19 01:06:37;;;;;;;16.55;2.90;;;5.90;71.10;;;;;;5095639;28;20043;-88
2022/02/19 01:09:04;;;;;;;20.67;2.80;;;5.90;71.00;;;;;;5095490;28;20047;-87
2022/02/19 01:11:31;;;;;;;22.02;3.78;;;5.90;71.00;;;;;;5095131;28;20270;-86
2022/02/19 01:13:58;;;;;;;17.80;3.47;;;5.90;71.00;;;;;;5095766;28;20048;-86
2022/02/19 01:16:25;;;;;;;18.05;2.72;;;5.90;71.00;;;;;;5096060;28;20482;-86
2022/02/19 01:18:52;;;;;;;12.77;2.80;;;5.90;70.90;;;;;;5095349;28;20059;-86
2022/02/19 01:21:19;;;;;;;11.45;2.60;;;5.90;70.90;;;;;;5095164;28;20058;-86
2022/02/19 01:23:46;;;;;;;20.10;3.50;;;5.90;70.90;;;;;;5095373;28;20044;-86
2022/02/19 01:26:14;;;;;;;16.15;2.65;;;5.90;70.90;;;;;;5078721;28;20040;-86
2022/02/19 01:28:41;;;;;;;18.42;3.20;;;5.90;70.90;;;;;;5091428;28;20052;-87
2022/02/19 01:31:08;;;;;;;16.67;3.25;;;5.90;71.00;;;;;;5095229;28;20048;-86
2022/02/19 01:33:35;;;;;;;19.77;3.15;;;5.90;71.00;;;;;;5095080;28;20062;-87
2022/02/19 01:36:03;;;;;;;15.10;2.75;;;5.90;71.00;;;;;;5094993;28;20067;-87
2022/02/19 01:38:30;;;;;;;21.73;3.30;;;5.90;71.10;;;;;;5077069;28;20047;-87
2022/02/19 01:40:59;;;;;;;21.70;4.25;;;5.90;71.10;;;;;;5094804;28;20051;-87
2022/02/19 01:43:26;;;;;;;17.08;2.67;;;5.80;71.20;;;;;;5093379;28;20164;-87
2022/02/19 01:45:52;;;;;;;16.52;2.80;;;5.90;71.20;;;;;;5094806;28;20047;-87
2022/02/19 01:48:20;;;;;;;15.90;2.97;;;5.90;71.20;;;;;;5094979;28;20047;-86
2022/02/19 01:50:47;;;;;;;17.40;2.67;;;5.90;71.20;;;;;;5094747;28;20044;-87
2022/02/19 01:53:17;;;;;;;17.60;2.85;;;5.80;71.30;;;;;;5078585;28;20069;-86
2022/02/19 01:55:46;;;;;;;16.20;2.70;;;5.80;71.20;;;;;;5091042;28;20044;-87
2022/02/19 01:58:14;;;;;;;17.77;2.97;;;5.80;71.20;;;;;;5094418;28;20048;-86
2022/02/19 02:00:41;;;;;;;17.98;2.78;;;5.80;71.20;;;;;;5094546;28;20051;-86
2022/02/19 02:03:08;;;;;;;13.98;2.40;;;5.80;71.30;;;;;;5094422;28;20055;-86
2022/02/19 02:05:36;;;;;;;17.75;3.15;;;5.80;71.30;;;;;;5094543;28;20113;-87
2022/02/19 02:08:06;;;;;;;15.48;2.85;;;5.70;71.20;;;;;;5094194;28;20047;-87
2022/02/19 02:10:34;;;;;;;17.13;3.10;;;5.70;71.20;;;;;;5076974;28;20055;-87
2022/02/19 02:13:04;;;;;;;15.35;2.90;;;5.70;71.20;;;;;;5094251;28;20229;-86
2022/02/19 02:15:33;;;;;;;20.38;2.83;;;5.70;71.20;;;;;;5103457;28;20506;-86
2022/02/19 02:18:01;;;;;;;14.68;2.90;;;5.70;71.10;;;;;;5066732;28;20509;-86
2022/02/19 02:20:29;;;;;;;14.25;2.67;;;5.70;71.10;;;;;;5094206;28;20044;-87
2022/02/19 02:22:57;;;;;;;14.88;3.25;;;5.70;71.00;;;;;;5075885;28;20564;-87
2022/02/19 02:25:27;;;;;;;18.33;2.60;;;5.70;71.00;;;;;;5076718;28;20052;-87
2022/02/19 02:27:55;;;;;;;19.42;3.55;;;5.60;71.00;;;;;;5076081;28;20040;-88
2022/02/19 02:30:26;;;;;;;18.13;2.70;;;5.70;71.00;;;;;;5093799;28;20524;-88
2022/02/19 02:32:53;;;;;;;15.25;2.55;;;5.70;71.00;;;;;;5093855;28;20048;-86
2022/02/19 02:35:20;;;;;;;19.65;3.13;;;5.60;70.90;;;;;;5094044;28;20052;-86
2022/02/19 02:37:47;;;;;;;19.35;3.03;;;5.60;70.90;;;;;;5093934;28;20056;-85
2022/02/19 02:40:14;;;;;;;23.63;3.63;;;5.60;70.90;;;;;;5093747;28;20044;-86
2022/02/19 02:42:41;;;;;;;19.63;3.35;;;5.60;70.90;;;;;;5093682;28;20051;-86
2022/02/19 02:45:08;;;;;;;15.48;3.13;;;5.50;70.90;;;;;;5093679;28;20055;-86
2022/02/19 02:47:56;;;;;;;15.93;3.00;;;5.50;70.90;;;;;;5093825;28;20079;-86
2022/02/19 02:50:23;;;;;;;10.75;2.25;;;5.50;70.80;;;;;;5093743;28;20056;-86
2022/02/19 02:52:50;;;;;;;14.80;2.35;;;5.50;70.80;;;;;;5093311;28;20064;-86
2022/02/19 02:55:17;;;;;;;17.17;3.22;;;5.50;70.80;;;;;;5094079;28;20044;-86
2022/02/19 02:57:44;;;;;;;13.82;3.00;;;5.50;70.90;;;;;;5075487;28;20056;-86
2022/02/19 03:00:13;;;;;;;19.02;3.40;;;5.50;70.90;;;;;;5093494;28;20044;-86
2022/02/19 03:02:41;;;;;;;18.05;3.17;;;5.50;70.90;;;;;;5093486;28;20100;-86
2022/02/19 03:05:09;;;;;;;16.65;3.05;;;5.50;70.90;;;;;;5093354;28;20063;-86
2022/02/19 03:07:37;;;;;;;14.90;2.80;;;5.40;70.90;;;;;;5093712;28;20059;-86
2022/02/19 03:10:05;;;;;;;15.07;2.80;;;5.40;70.90;;;;;;5093085;28;20421;-86
2022/02/19 03:12:32;;;;;;;16.95;2.78;;;5.40;71.00;;;;;;5093174;28;20039;-86
2022/02/19 03:14:59;;;;;;;12.55;3.08;;;5.40;71.00;;;;;;5075300;28;20051;-86
2022/02/19 03:17:26;;;;;;;16.10;2.45;;;5.40;71.10;;;;;;5075103;28;20097;-86
2022/02/19 03:19:53;;;;;;;14.25;2.63;;;5.40;71.10;;;;;;5093282;28;20044;-86
2022/02/19 03:22:20;;;;;;;15.63;2.38;;;5.40;71.20;;;;;;5093031;28;20051;-86
2022/02/19 03:24:47;;;;;;;16.27;2.78;;;5.30;71.20;;;;;;5092612;28;20464;-87
2022/02/19 03:27:14;;;;;;;15.52;2.38;;;5.40;71.30;;;;;;5092480;28;20127;-86
2022/02/19 03:29:41;;;;;;;14.43;2.72;;;5.40;71.30;;;;;;5075137;28;20419;-87
2022/02/19 03:32:08;;;;;;;13.93;3.10;;;5.40;71.40;;;;;;5092891;28;20102;-88
2022/02/19 03:34:35;;;;;;;13.00;2.67;;;5.30;71.40;;;;;;5093244;28;20167;-87
2022/02/19 03:37:03;;;;;;;18.35;2.90;;;5.30;71.50;;;;;;5092429;28;20044;-87
2022/02/19 03:39:30;;;;;;;12.48;2.65;;;5.30;71.50;;;;;;5092628;28;20055;-86
2022/02/19 03:41:57;;;;;;;12.90;3.15;;;5.30;71.50;;;;;;5092478;28;20528;-86
2022/02/19 03:44:24;;;;;;;15.38;2.35;;;5.30;71.60;;;;;;5092602;28;20456;-86
2022/02/19 03:46:51;;;;;;;15.43;3.08;;;5.20;71.60;;;;;;5092795;28;20117;-88
2022/02/19 03:49:18;;;;;;;15.23;3.30;;;5.20;71.70;;;;;;5092112;28;20460;-88
2022/02/19 03:51:45;;;;;;;13.15;3.08;;;5.20;71.70;;;;;;5092180;28;20524;-86
2022/02/19 03:54:12;;;;;;;11.25;2.30;;;5.20;71.80;;;;;;5092492;28;20125;-88
2022/02/19 03:56:39;;;;;;;14.13;2.88;;;5.20;71.90;;;;;;5092552;28;20074;-88
2022/02/19 03:59:06;;;;;;;16.77;3.00;;;5.30;72.00;;;;;;5092380;28;20085;-86
2022/02/19 04:01:33;;;;;;;16.60;2.90;;;5.20;72.20;;;;;;5092946;28;20048;-86
2022/02/19 04:03:59;;;;;;;14.77;2.80;;;5.20;72.30;;;;;;5091881;28;20081;-86
2022/02/19 04:06:26;;;;;;;15.82;2.97;;;5.20;72.50;;;;;;5092378;28;20048;-88
2022/02/19 04:08:53;;;;;;;17.58;2.90;;;5.20;72.60;;;;;;5092261;28;20059;-87
2022/02/19 04:11:20;;;;;;;18.92;3.28;;;5.20;72.80;;;;;;5092083;28;20059;-87
2022/02/19 04:13:47;;;;;;;15.82;2.70;;;5.20;72.90;;;;;;5074966;28;20094;-86
2022/02/19 04:16:14;;;;;;;20.77;3.53;;;5.10;73.10;;;;;;5091939;28;20498;-86
2022/02/19 04:18:41;;;;;;;13.40;2.55;;;5.10;73.30;;;;;;5091689;28;20048;-86
2022/02/19 04:21:08;;;;;;;18.15;2.88;;;5.10;73.50;;;;;;5092019;28;20056;-86
2022/02/19 04:23:36;;;;;;;15.30;2.70;;;5.10;73.70;;;;;;5073974;28;20040;-86
2022/02/19 04:26:03;;;;;;;15.38;2.25;;;5.10;73.80;;;;;;5091881;28;20052;-86
2022/02/19 04:28:30;;;;;;;16.13;2.75;;;5.10;74.00;;;;;;5092538;28;20044;-86
2022/02/19 04:30:57;;;;;;;18.25;3.58;;;5.10;74.10;;;;;;5091909;28;20048;-86
2022/02/19 04:33:24;;;;;;;18.50;3.35;;;5.10;74.20;;;;;;5091388;28;20043;-86
2022/02/19 04:35:52;;;;;;;14.00;2.88;;;5.10;74.40;;;;;;5091788;28;20051;-86
2022/02/19 04:38:24;;;;;;;14.45;2.88;;;5.10;74.50;;;;;;5073820;28;20040;-86
2022/02/19 04:40:51;;;;;;;15.15;2.70;;;5.10;74.70;;;;;;5092010;28;20517;-86
2022/02/19 04:43:18;;;;;;;12.48;2.53;;;5.10;74.80;;;;;;5091532;28;20052;-86
2022/02/19 04:45:45;;;;;;;17.50;3.15;;;5.10;74.90;;;;;;5091600;28;20048;-86
2022/02/19 04:48:13;;;;;;;15.52;2.92;;;5.00;75.00;;;;;;5091345;28;20043;-86
2022/02/19 04:50:41;;;;;;;16.60;2.67;;;5.10;75.10;;;;;;5091899;28;20060;-86
2022/02/19 04:53:13;;;;;;;14.13;2.80;;;5.00;75.20;;;;;;5091544;28;20093;-86
2022/02/19 04:55:40;;;;;;;15.23;3.08;;;5.00;75.30;;;;;;5092349;28;20055;-87
2022/02/19 04:58:07;;;;;;;14.07;2.58;;;5.10;75.40;;;;;;5091435;28;20048;-87
2022/02/19 05:00:34;;;;;;;16.67;2.88;;;5.00;75.50;;;;;;5091553;28;20044;-87
2022/02/19 05:03:01;;;;;;;13.85;2.67;;;5.00;75.70;;;;;;5091218;28;20047;-89
2022/02/19 05:05:28;;;;;;;11.73;2.33;;;5.00;75.80;;;;;;5091455;28;20048;-88
2022/02/19 05:07:55;;;;;;;13.35;2.45;;;5.00;75.80;;;;;;5073854;28;20048;-89
2022/02/19 05:10:22;;;;;;;15.50;2.30;;;5.00;75.90;;;;;;5091866;28;20052;-89
2022/02/19 05:12:50;;;;;;;13.25;2.22;;;5.00;76.00;;;;;;5091562;28;20044;-88
2022/02/19 05:15:18;;;;;;;15.10;2.50;;;5.00;76.10;;;;;;5091491;28;20448;-88
2022/02/19 05:17:53;;;;;;;11.15;2.15;;;5.00;76.30;;;;;;5091188;28;20063;-87
2022/02/19 05:20:22;;;;;;;14.32;2.45;;;5.00;76.40;;;;;;5076366;28;20075;-87
2022/02/19 05:22:50;;;;;;;16.35;2.58;;;5.00;76.50;;;;;;5091544;28;20063;-87
2022/02/19 05:25:17;;;;;;;16.95;3.20;;;5.00;76.60;;;;;;5091748;28;20122;-87
2022/02/19 05:27:44;;;;;;;13.70;2.53;;;5.00;76.70;;;;;;5073396;28;20130;-87
2022/02/19 05:30:12;;;;;;;13.40;2.28;;;5.00;76.80;;;;;;5091317;28;20044;-88
2022/02/19 05:32:39;;;;;;;12.52;2.40;;;5.00;76.90;;;;;;5090869;28;20524;-87
2022/02/19 05:35:06;;;;;;;16.90;2.60;;;5.00;76.90;;;;;;5091365;28;20766;-87
2022/02/19 05:37:35;;;;;;;11.65;2.38;;;5.00;77.00;;;;;;5091954;28;20055;-88
2022/02/19 05:40:03;;;;;;;16.45;3.28;;;5.00;77.00;;;;;;5091175;28;20531;-89
2022/02/19 05:42:30;;;;;;;17.70;3.40;;;5.00;77.10;;;;;;5091134;28;20489;-89
2022/02/19 05:44:57;;;;;;;13.52;2.78;;;5.00;77.10;;;;;;5090890;28;20102;-87
2022/02/19 05:47:23;;;;;;;16.83;2.88;;;5.00;77.20;;;;;;5090901;28;20428;-88
2022/02/19 05:49:50;;;;;;;14.93;3.08;;;5.00;77.20;;;;;;5075872;28;20047;-88
2022/02/19 05:52:18;;;;;;;11.43;2.45;;;4.90;77.30;;;;;;5094024;28;20044;-88
2022/02/19 05:54:45;;;;;;;10.20;2.58;;;4.90;77.30;;;;;;5094669;28;20053;-87
2022/02/19 05:57:13;;;;;;;13.95;2.75;;;4.90;77.40;;;;;;5094678;28;20040;-87
2022/02/19 05:59:40;;;;;;;13.38;3.03;;;4.90;77.40;;;;;;5094839;28;20101;-87
2022/02/19 06:02:07;;;;;;;13.20;2.45;;;4.90;77.40;;;;;;5094397;28;20052;-86
2022/02/19 06:04:34;;;;;;;15.48;3.25;;;4.90;77.50;;;;;;5093463;28;20056;-87
2022/02/19 06:07:01;;;;;;;14.68;2.70;;;4.90;77.50;;;;;;5094239;28;20044;-87
2022/02/19 06:09:28;;;;;;;13.98;2.53;;;4.90;77.50;;;;;;5093289;28;20464;-87
2022/02/19 06:11:54;;;;;;;17.88;3.22;;;4.90;77.50;;;;;;5097046;28;20055;-86
2022/02/19 06:14:22;;;;;;;15.40;2.70;;;4.90;77.60;;;;;;5094276;28;20059;-86
2022/02/19 06:16:49;;;;;;;18.77;3.28;;;4.90;77.70;;;;;;5093783;28;20047;-87
2022/02/19 06:19:17;;;;;;;14.35;2.30;;;4.80;77.70;;;;;;5093870;28;20058;-87
2022/02/19 06:21:44;;;;;;;11.40;2.67;;;4.80;77.70;;;;;;5093800;28;20048;-87
2022/02/19 06:24:11;;;;;;;13.80;2.53;;;4.80;77.70;;;;;;5095787;28;20052;-87
2022/02/19 06:26:38;;;;;;;15.52;3.10;;;4.80;77.70;;;;;;5093643;28;20044;-87
2022/02/19 06:29:05;;;;;;;13.30;2.35;;;4.70;77.70;;;;;;5093417;28;20044;-87
2022/02/19 06:31:32;;;;;;;14.65;2.97;;;4.70;77.80;;;;;;5076484;28;20055;-86
2022/02/19 06:33:59;;;;;;;12.77;2.63;;;4.70;77.80;;;;;;5075247;28;20048;-87
2022/02/19 06:36:26;;;;;;;12.48;2.70;;;4.70;77.90;;;;;;5093675;28;20107;-87
2022/02/19 06:38:53;;;;;;;15.45;2.80;;;4.70;77.90;;;;;;5093474;28;20120;-87
2022/02/19 06:41:19;;;;;;;15.93;3.55;;;4.70;77.90;;;;;;5075242;28;20559;-86
2022/02/19 06:43:46;;;;;;;17.23;2.63;;;4.70;78.00;;;;;;5093845;28;20052;-87
2022/02/19 06:46:13;;;;;;;13.65;2.50;;;4.70;78.00;;;;;;5093219;28;20048;-87
2022/02/19 06:48:40;;;;;;;14.50;2.95;;;4.60;78.00;;;;;;5074893;28;20044;-88
2022/02/19 06:51:07;;;;;;;17.30;3.75;;;4.70;78.10;;;;;;5093309;28;20044;-88
2022/02/19 06:53:36;;;;;;;16.25;3.42;;;4.60;78.10;;;;;;5075614;28;20043;-87
2022/02/19 06:56:04;;;;;;;15.38;3.30;;;4.60;78.10;;;;;;5092863;28;20471;-88
2022/02/19 06:58:31;;;;;;;12.77;3.30;;;4.60;78.20;;;;;;5093660;28;20063;-88
2022/02/19 07:00:58;;;;;;;13.73;3.30;;;4.60;78.20;;;;;;5094841;28;20044;-88
2022/02/19 07:03:26;;;;;;;11.90;3.35;;;4.60;78.30;;;;;;5092498;28;20051;-88
2022/02/19 07:05:54;;;;;;;12.82;3.15;;;4.50;78.30;;;;;;5093113;28;20048;-87
2022/02/19 07:08:21;;;;;;;16.92;2.80;;;4.50;78.40;;;;;;5093065;28;20052;-86
2022/02/19 07:10:48;;;;;;;10.07;2.35;;;4.60;78.40;;;;;;5075119;28;20091;-87
2022/02/19 07:13:15;;;;;;;12.98;2.72;;;4.50;78.50;;;;;;5092575;28;20055;-87
2022/02/19 07:15:42;;;;;;;9.23;2.42;;;4.50;78.50;;;;;;5092520;28;20052;-87
2022/02/19 07:18:09;;;;;;;7.78;2.25;;;4.50;78.50;;;;;;5093052;28;20040;-86
2022/02/19 07:20:38;;;;;;;9.10;2.22;;;4.50;78.60;;;;;;5093174;28;20529;-87
2022/02/19 07:23:05;;;;;;;7.65;2.03;;;4.50;78.60;;;;;;5093012;28;20045;-87
2022/02/19 07:25:33;;;;;;;9.93;2.03;;;4.50;78.70;;;;;;5093506;28;20101;-86
2022/02/19 07:28:00;;;;;;;6.78;2.13;;;4.50;78.70;;;;;;5092689;28;20055;-86
2022/02/19 07:30:28;;;;;;;10.75;2.20;;;4.50;78.80;;;;;;5092903;28;20048;-87
2022/02/19 07:32:56;;;;;;;10.82;2.10;;;4.50;78.80;;;;;;5092821;28;20049;-87
2022/02/19 07:35:24;;;;;;;10.55;2.30;;;4.50;78.90;;;;;;5093097;28;20040;-87
2022/02/19 07:37:52;;;;;;;11.50;2.50;;;4.50;78.90;;;;;;5093063;28;20048;-86
2022/02/19 07:40:19;;;;;;;11.30;2.10;;;4.50;79.00;;;;;;5092234;28;20055;-87
2022/02/19 07:42:46;;;;;;;8.75;2.10;;;4.50;79.10;;;;;;5091973;28;20508;-87
2022/02/19 07:45:13;;;;;;;5.93;1.77;;;4.50;79.10;;;;;;5092627;28;20040;-86
2022/02/19 07:47:40;;;;;;;10.02;1.98;;;4.50;79.20;;;;;;5108285;28;20455;-87
2022/02/19 07:58:28;;;;;;;11.40;2.20;;;4.50;79.40;;;;;;5090925;28;20060;-86
2022/02/19 08:00:58;;;;;;;6.70;1.85;;;4.50;79.40;;;;;;5092273;28;20060;-87
2022/02/19 08:03:27;;;;;;;10.20;2.17;;;4.50;79.50;;;;;;5092169;28;20054;-87
2022/02/19 08:05:55;;;;;;;9.18;2.25;;;4.50;79.60;;;;;;5092204;28;20417;-86
2022/02/19 08:08:22;;;;;;;8.55;2.20;;;4.50;79.60;;;;;;5092378;28;20048;-87
2022/02/19 08:10:50;;;;;;;11.88;2.47;;;4.40;79.70;;;;;;5092144;28;20047;-87
2022/02/19 08:13:19;;;;;;;9.65;2.30;;;4.50;79.80;;;;;;5074179;28;20048;-86
2022/02/19 08:15:49;;;;;;;6.20;2.10;;;4.40;79.90;;;;;;5092053;28;20044;-86
2022/02/19 08:18:17;;;;;;;10.90;2.60;;;4.50;80.00;;;;;;5091970;28;20521;-87
2022/02/19 08:20:47;;;;;;;7.85;2.10;;;4.40;80.00;;;;;;5092005;28;20048;-86
2022/02/19 08:23:16;;;;;;;9.73;2.20;;;4.50;80.10;;;;;;5075925;28;20058;-88
2022/02/19 08:25:44;;;;;;;8.77;2.58;;;4.50;80.20;;;;;;5088095;28;20048;-88
2022/02/19 08:28:11;;;;;;;6.80;2.20;;;4.50;80.30;;;;;;5092041;28;20118;-88
2022/02/19 08:30:40;;;;;;;12.13;2.85;;;4.50;80.30;;;;;;5073929;28;20044;-88
2022/02/19 08:33:08;;;;;;;10.95;2.70;;;4.50;80.40;;;;;;5091811;28;20051;-87
2022/02/19 08:35:37;;;;;;;6.60;2.17;;;4.50;80.50;;;;;;5092071;28;20047;-88
2022/02/19 08:38:04;;;;;;;12.85;3.53;;;4.50;80.60;;;;;;5091802;28;20055;-88
2022/02/19 08:40:31;;;;;;;8.65;2.95;;;4.50;80.60;;;;;;5092023;28;20056;-87
2022/02/19 08:42:58;;;;;;;15.00;3.65;;;4.60;80.70;;;;;;5091565;28;20437;-87
2022/02/19 08:45:25;;;;;;;10.30;3.58;;;4.60;80.70;;;;;;5073719;28;20056;-87
2022/02/19 08:47:54;;;;;;;10.73;3.75;;;4.60;80.80;;;;;;5091716;28;20050;-87
2022/02/19 08:50:21;;;;;;;11.45;3.60;;;4.60;80.90;;;;;;5091796;28;20071;-87
2022/02/19 08:52:49;;;;;;;12.77;4.25;;;4.70;80.90;;;;;;5091969;28;20048;-88
2022/02/19 08:55:16;;;;;;;12.50;3.72;;;4.70;81.00;;;;;;5091530;28;20048;-87
2022/02/19 08:57:46;;;;;;;11.07;4.05;;;4.70;81.00;;;;;;5091528;28;20464;-87
2022/02/19 09:00:14;;;;;;;14.23;4.43;;;4.80;81.10;;;;;;5091660;28;20051;-87
2022/02/19 09:02:41;;;;;;;16.05;4.05;;;4.80;81.10;;;;;;5091653;28;20118;-87
2022/02/19 09:05:10;;;;;;;17.05;4.25;;;4.80;81.10;;;;;;5091803;28;20048;-87
2022/02/19 09:07:39;;;;;;;15.52;4.22;;;4.90;81.10;;;;;;5092186;28;20113;-86
2022/02/19 09:10:08;;;;;;;13.20;4.15;;;4.90;81.10;;;;;;5091385;28;20524;-87
2022/02/19 09:12:36;;;;;;;13.30;4.20;;;4.90;81.20;;;;;;5091443;28;20051;-85
2022/02/19 09:15:04;;;;;;;18.65;5.03;;;4.90;81.20;;;;;;5091346;28;20047;-86
2022/02/19 09:17:31;;;;;;;12.93;3.90;;;4.90;81.20;;;;;;5073639;28;20044;-86
2022/02/19 09:19:58;;;;;;;14.27;4.20;;;5.00;81.20;;;;;;5088727;28;20502;-86
2022/02/19 09:22:25;;;;;;;15.68;4.88;;;5.00;81.20;;;;;;5079378;28;20053;-87
2022/02/19 09:24:52;;;;;;;14.80;4.47;;;5.00;81.20;;;;;;5093117;28;20581;-86
2022/02/19 09:27:19;;;;;;;17.17;4.75;;;5.10;81.30;;;;;;5102198;28;20464;-86
2022/02/19 09:29:46;;;;;;;13.65;4.50;;;5.20;81.30;;;;;;5095082;28;20055;-86
2022/02/19 09:32:13;;;;;;;14.50;4.43;;;5.20;81.30;;;;;;5094648;28;20142;-85
2022/02/19 09:34:40;;;;;;;16.58;4.28;;;5.20;81.30;;;;;;5095300;28;20048;-86
2022/02/19 09:37:07;;;;;;;14.32;4.75;;;5.30;81.30;;;;;;5099144;28;20409;-86
2022/02/19 09:39:34;;;;;;;11.77;3.78;;;5.40;81.30;;;;;;5099156;28;20044;-88
2022/02/19 09:42:03;;;;;;;14.57;4.47;;;5.40;81.30;;;;;;5094304;28;20525;-87
2022/02/19 09:44:31;;;;;;;16.65;4.47;;;5.40;81.30;;;;;;5094891;28;20062;-86
2022/02/19 09:46:58;;;;;;;12.55;4.32;;;5.50;81.30;;;;;;5094358;28;20051;-86
2022/02/19 09:49:25;;;;;;;18.73;4.60;;;5.50;81.30;;;;;;5095081;28;20048;-86
2022/02/19 09:51:55;;;;;;;15.93;4.22;;;5.60;81.30;;;;;;5094447;28;20195;-86
2022/02/19 09:54:23;;;;;;;13.10;4.38;;;5.60;81.20;;;;;;5105268;28;20067;-86
2022/02/19 09:56:50;;;;;;;15.65;4.22;;;5.80;81.20;;;;;;5065389;28;20044;-86
2022/02/19 09:59:18;;;;;;;15.23;3.75;;;5.80;81.10;;;;;;5076497;28;20044;-86
2022/02/19 10:02:00;;;;;;;18.48;4.13;;;5.90;81.00;;;;;;5076530;28;20516;-86
2022/02/19 10:04:27;;;;;;;16.27;4.20;;;5.90;80.90;;;;;;5092860;28;20048;-87
2022/02/19 10:07:10;;;;;;;18.50;4.20;;;6.00;80.80;;;;;;5093796;28;20378;-88
2022/02/19 10:09:42;;;;;;;18.90;4.13;;;6.00;80.70;;;;;;5093759;28;20036;-88
2022/02/19 10:12:11;;;;;;;17.95;3.92;;;6.10;80.50;;;;;;5076084;28;20055;-87
2022/02/19 10:14:39;;;;;;;14.80;3.70;;;6.20;80.40;;;;;;5099442;28;20063;-87
2022/02/19 10:17:18;;;;;;;11.43;3.50;;;6.30;80.30;;;;;;5093725;28;20061;-87
2022/02/19 10:19:50;;;;;;;10.35;3.08;;;6.30;80.20;;;;;;5076786;28;20084;-86
2022/02/19 10:22:21;;;;;;;15.95;3.13;;;6.40;80.10;;;;;;5093013;28;20123;-86
2022/02/19 10:24:52;;;;;;;11.93;2.92;;;6.40;80.00;;;;;;5075649;28;20056;-86
2022/02/19 10:27:19;;;;;;;15.35;2.83;;;6.50;80.00;;;;;;5075912;28;20425;-86
2022/02/19 10:29:55;;;;;;;9.10;2.65;;;6.60;79.90;;;;;;5093612;28;20498;-86
2022/02/19 10:32:24;;;;;;;13.63;3.05;;;6.70;79.80;;;;;;5060615;28;20055;-86
2022/02/19 10:35:06;;;;;;;10.45;2.40;;;6.90;79.80;;;;;;5093707;28;20076;-85
2022/02/19 10:37:50;;;;;;;15.48;3.15;;;6.90;79.60;;;;;;5092595;28;20044;-86
2022/02/19 10:40:39;;;;;;;11.50;2.88;;;7.00;79.50;;;;;;5093926;28;20513;-86
2022/02/19 10:43:08;;;;;;;18.95;3.45;;;7.30;79.40;;;;;;5093528;28;20132;-87
2022/02/19 10:45:37;;;;;;;14.30;3.03;;;7.40;79.20;;;;;;5093064;28;20059;-86
2022/02/19 10:48:21;;;;;;;11.55;3.08;;;7.40;78.90;;;;;;5093450;28;20144;-86
2022/02/19 10:50:48;;;;;;;13.43;3.90;;;7.60;78.70;;;;;;5093037;28;20505;-86
2022/02/19 10:53:25;;;;;;;18.05;4.35;;;7.70;78.50;;;;;;5076828;28;20040;-85
2022/02/19 10:55:56;;;;;;;18.27;4.57;;;7.90;78.20;;;;;;5090541;28;20052;-86
2022/02/19 10:58:24;;;;;;;14.73;4.03;;;7.90;77.90;;;;;;5093329;28;20548;-86
2022/02/19 11:00:51;;;;;;;18.60;3.90;;;8.00;77.50;;;;;;5092735;28;20061;-86
2022/02/19 11:03:21;;;;;;;15.02;3.85;;;8.20;77.20;;;;;;5093221;28;20072;-85
2022/02/19 11:05:49;;;;;;;15.98;3.78;;;8.20;76.90;;;;;;5092723;28;20090;-86
2022/02/19 11:08:17;;;;;;;20.75;4.78;;;8.30;76.60;;;;;;5076827;28;20047;-87
2022/02/19 11:10:44;;;;;;;17.10;3.60;;;8.40;76.20;;;;;;5089318;28;20513;-87
2022/02/19 11:13:12;;;;;;;17.25;4.38;;;8.40;76.00;;;;;;5093220;28;20460;-87
2022/02/19 11:15:39;;;;;;;15.48;3.67;;;8.50;75.70;;;;;;5097064;28;20506;-87
2022/02/19 11:18:06;;;;;;;15.20;4.00;;;8.60;75.60;;;;;;5092869;28;20050;-87
2022/02/19 11:20:34;;;;;;;14.35;3.30;;;8.70;75.40;;;;;;5092655;28;20070;-86
2022/02/19 11:23:02;;;;;;;15.68;3.88;;;8.80;75.30;;;;;;5092651;28;20501;-86
2022/02/19 11:25:34;;;;;;;13.55;3.47;;;8.90;75.10;;;;;;5091550;28;20052;-86
2022/02/19 11:28:07;;;;;;;14.20;3.65;;;8.90;74.90;;;;;;5092531;28;20052;-86
2022/02/19 11:30:45;;;;;;;19.33;3.60;;;9.00;74.80;;;;;;5092381;28;20067;-86
2022/02/19 11:33:12;;;;;;;16.20;3.83;;;9.10;74.60;;;;;;5092722;28;20055;-87
2022/02/19 11:35:42;;;;;;;12.68;3.13;;;9.10;74.40;;;;;;5092309;28;20498;-85
2022/02/19 11:38:32;;;;;;;16.02;3.80;;;9.20;74.30;;;;;;5092208;28;20051;-86
2022/02/19 11:41:01;;;;;;;12.10;2.75;;;9.20;74.00;;;;;;5090311;28;20097;-85
2022/02/19 11:43:48;;;;;;;11.10;2.90;;;9.30;73.80;;;;;;5090997;28;20525;-85
2022/02/19 11:46:16;;;;;;;11.88;2.78;;;9.30;73.40;;;;;;5091212;28;20048;-86
2022/02/19 11:48:48;;;;;;;15.77;3.17;;;9.40;73.10;;;;;;5091837;28;20051;-86
2022/02/19 11:51:18;;;;;;;14.88;3.22;;;9.40;72.70;;;;;;5074190;28;20048;-85
2022/02/19 11:53:48;;;;;;;15.57;3.25;;;9.40;72.30;;;;;;5092006;28;20044;-85
2022/02/19 11:56:31;;;;;;;13.82;3.08;;;9.40;72.10;;;;;;5075899;28;20047;-85
2022/02/19 11:59:02;;;;;;;16.80;2.90;;;9.40;71.80;;;;;;5090227;28;20059;-85
2022/02/19 12:01:30;;;;;;;16.67;3.20;;;9.50;71.70;;;;;;5090282;28;20409;-85
2022/02/19 12:04:09;;;;;;;14.23;2.97;;;9.40;71.70;;;;;;5091689;28;20056;-84
2022/02/19 12:06:41;;;;;;;18.05;2.78;;;9.50;71.60;;;;;;5091824;28;20051;-85
2022/02/19 12:09:10;;;;;;;19.75;2.60;;;9.50;71.40;;;;;;5074035;28;20425;-86
2022/02/19 12:11:49;;;;;;;18.42;3.00;;;9.50;71.20;;;;;;5092079;28;20113;-85
2022/02/19 12:14:41;;;;;;;14.48;2.55;;;9.60;70.70;;;;;;5085748;28;20058;-86
2022/02/19 12:17:10;;;;;;;14.00;2.55;;;9.50;70.10;;;;;;5090678;28;20044;-87
2022/02/19 12:20:03;;;;;;;11.88;2.50;;;9.50;69.80;;;;;;5092474;28;20044;-87
2022/02/19 12:22:49;;;;;;;10.13;2.20;;;9.60;69.70;;;;;;5090482;28;20176;-87
2022/02/19 12:25:16;;;;;;;14.52;2.90;;;9.50;69.60;;;;;;5091581;28;20048;-87
2022/02/19 12:27:44;;;;;;;22.75;2.92;;;9.60;69.50;;;;;;5091397;28;20044;-87
2022/02/19 12:30:26;;;;;;;13.27;2.55;;;9.50;69.30;;;;;;5091382;28;20101;-86
2022/02/19 12:33:01;;;;;;;7.25;2.00;;;9.50;69.10;;;;;;5090886;28;20052;-86
2022/02/19 12:35:35;;;;;;;13.90;2.50;;;9.60;68.90;;;;;;5074059;28;20044;-86
2022/02/19 12:38:03;;;;;;;12.05;2.70;;;9.50;68.80;;;;;;5073990;28;20055;-85
2022/02/19 12:40:32;;;;;;;8.95;2.17;;;9.60;68.70;;;;;;5092346;28;20139;-85
2022/02/19 12:42:59;;;;;;;16.52;2.30;;;9.60;68.70;;;;;;5091897;28;20060;-86
2022/02/19 12:45:27;;;;;;;11.48;2.25;;;9.60;68.40;;;;;;5091606;28;20067;-86
2022/02/19 12:47:53;;;;;;;10.25;2.25;;;9.60;68.20;;;;;;5091266;28;20418;-86
2022/02/19 12:50:21;;;;;;;9.68;2.55;;;9.60;68.10;;;;;;5091794;28;20161;-85
2022/02/19 12:52:50;;;;;;;10.98;2.80;;;9.60;68.20;;;;;;5092027;28;20133;-85
2022/02/19 12:55:19;;;;;;;8.40;1.83;;;9.60;68.10;;;;;;5088576;28;20044;-85
2022/02/19 12:57:58;;;;;;;13.30;2.58;;;9.60;68.00;;;;;;5092192;28;20146;-86
2022/02/19 13:00:26;;;;;;;14.80;4.75;;;9.60;67.90;;;;;;5077697;28;20044;-87
2022/02/19 13:03:00;;;;;;;10.95;2.83;;;9.60;67.80;;;;;;5096093;28;20051;-87